sensor_id;sensor_type;location;lat;lon;timestamp;P1;durP1;ratioP1;P2;durP2;ratioP2
71975;SDS011;68326;52.124;5.424;2023-04-25T00:01:35;7.10;;;1.10;;
71975;SDS011;68326;52.124;5.424;2023-04-25T00:04:02;8.00;;;1.10;;
71975;SDS011;68326;52.124;5.424;2023-04-25T00:06:29;9.20;;;1.15;;
71975;SDS011;68326;52.124;5.424;2023-04-25T00:08:56;4.57;;;1.00;;
71975;SDS011;68326;52.124;5.424;2023-04-25T00:11:23;6.43;;;1.43;;
71975;SDS011;68326;52.124;5.424;2023-04-25T00:13:50;5.90;;;0.90;;
71975;SDS011;68326;52.124;5.424;2023-04-25T00:16:20;7.20;;;1.20;;
71975;SDS011;68326;52.124;5.424;2023-04-25T00:18:46;11.77;;;1.20;;
71975;SDS011;68326;52.124;5.424;2023-04-25T00:21:18;7.43;;;1.60;;
71975;SDS011;68326;52.124;5.424;2023-04-25T00:23:46;8.57;;;1.20;;
71975;SDS011;68326;52.124;5.424;2023-04-25T00:26:13;9.20;;;1.25;;
71975;SDS011;68326;52.124;5.424;2023-04-25T00:28:39;7.35;;;1.60;;
71975;SDS011;68326;52.124;5.424;2023-04-25T00:31:06;10.55;;;1.48;;
71975;SDS011;68326;52.124;5.424;2023-04-25T00:33:33;8.45;;;1.30;;
71975;SDS011;68326;52.124;5.424;2023-04-25T00:36:00;8.13;;;1.60;;
71975;SDS011;68326;52.124;5.424;2023-04-25T00:38:26;9.55;;;1.88;;
71975;SDS011;68326;52.124;5.424;2023-04-25T00:40:53;8.68;;;1.30;;
71975;SDS011;68326;52.124;5.424;2023-04-25T00:43:20;5.78;;;0.90;;
71975;SDS011;68326;52.124;5.424;2023-04-25T00:45:47;5.45;;;1.10;;
71975;SDS011;68326;52.124;5.424;2023-04-25T00:48:14;11.07;;;1.30;;
71975;SDS011;68326;52.124;5.424;2023-04-25T00:50:41;10.15;;;1.40;;
71975;SDS011;68326;52.124;5.424;2023-04-25T00:53:08;10.43;;;1.38;;
71975;SDS011;68326;52.124;5.424;2023-04-25T00:55:36;7.90;;;1.30;;
71975;SDS011;68326;52.124;5.424;2023-04-25T00:58:02;6.80;;;1.30;;
71975;SDS011;68326;52.124;5.424;2023-04-25T01:00:29;7.87;;;1.17;;
71975;SDS011;68326;52.124;5.424;2023-04-25T01:02:56;8.23;;;1.38;;
71975;SDS011;68326;52.124;5.424;2023-04-25T01:05:23;8.68;;;1.40;;
71975;SDS011;68326;52.124;5.424;2023-04-25T01:07:49;6.65;;;1.15;;
71975;SDS011;68326;52.124;5.424;2023-04-25T01:10:16;6.18;;;0.98;;
71975;SDS011;68326;52.124;5.424;2023-04-25T01:12:42;7.63;;;1.30;;
71975;SDS011;68326;52.124;5.424;2023-04-25T01:15:09;7.18;;;1.88;;
71975;SDS011;68326;52.124;5.424;2023-04-25T01:17:36;7.57;;;1.48;;
71975;SDS011;68326;52.124;5.424;2023-04-25T01:20:03;5.85;;;1.05;;
71975;SDS011;68326;52.124;5.424;2023-04-25T01:22:31;7.90;;;0.80;;
71975;SDS011;68326;52.124;5.424;2023-04-25T01:24:58;8.13;;;1.30;;
71975;SDS011;68326;52.124;5.424;2023-04-25T01:27:26;6.93;;;1.60;;
71975;SDS011;68326;52.124;5.424;2023-04-25T01:29:54;5.90;;;1.05;;
71975;SDS011;68326;52.124;5.424;2023-04-25T01:32:22;6.32;;;1.65;;
71975;SDS011;68326;52.124;5.424;2023-04-25T01:34:50;6.88;;;1.10;;
71975;SDS011;68326;52.124;5.424;2023-04-25T01:37:16;9.07;;;1.20;;
71975;SDS011;68326;52.124;5.424;2023-04-25T01:39:43;7.57;;;1.80;;
71975;SDS011;68326;52.124;5.424;2023-04-25T01:42:10;5.78;;;1.48;;
71975;SDS011;68326;52.124;5.424;2023-04-25T01:44:39;7.00;;;1.35;;
71975;SDS011;68326;52.124;5.424;2023-04-25T01:47:05;9.32;;;1.30;;
71975;SDS011;68326;52.124;5.424;2023-04-25T01:49:32;6.63;;;1.00;;
71975;SDS011;68326;52.124;5.424;2023-04-25T01:51:59;6.20;;;1.40;;
71975;SDS011;68326;52.124;5.424;2023-04-25T01:54:25;12.85;;;1.42;;
71975;SDS011;68326;52.124;5.424;2023-04-25T01:56:52;8.70;;;1.02;;
71975;SDS011;68326;52.124;5.424;2023-04-25T01:59:18;5.90;;;0.80;;
71975;SDS011;68326;52.124;5.424;2023-04-25T02:01:46;6.03;;;1.20;;
71975;SDS011;68326;52.124;5.424;2023-04-25T02:04:13;4.03;;;0.80;;
71975;SDS011;68326;52.124;5.424;2023-04-25T02:06:39;7.57;;;1.08;;
71975;SDS011;68326;52.124;5.424;2023-04-25T02:09:06;6.82;;;1.27;;
71975;SDS011;68326;52.124;5.424;2023-04-25T02:11:32;8.23;;;1.80;;
71975;SDS011;68326;52.124;5.424;2023-04-25T02:13:58;7.77;;;1.20;;
71975;SDS011;68326;52.124;5.424;2023-04-25T02:16:25;10.15;;;1.17;;
71975;SDS011;68326;52.124;5.424;2023-04-25T02:18:51;9.32;;;1.73;;
71975;SDS011;68326;52.124;5.424;2023-04-25T02:21:18;9.85;;;0.85;;
71975;SDS011;68326;52.124;5.424;2023-04-25T02:23:45;6.35;;;1.08;;
71975;SDS011;68326;52.124;5.424;2023-04-25T02:26:15;7.03;;;1.40;;
71975;SDS011;68326;52.124;5.424;2023-04-25T02:28:41;10.68;;;1.38;;
71975;SDS011;68326;52.124;5.424;2023-04-25T02:31:08;7.78;;;1.40;;
71975;SDS011;68326;52.124;5.424;2023-04-25T02:33:34;4.80;;;0.80;;
71975;SDS011;68326;52.124;5.424;2023-04-25T02:36:01;4.72;;;1.08;;
71975;SDS011;68326;52.124;5.424;2023-04-25T02:38:27;5.73;;;0.83;;
71975;SDS011;68326;52.124;5.424;2023-04-25T02:40:54;10.20;;;1.27;;
71975;SDS011;68326;52.124;5.424;2023-04-25T02:43:20;8.05;;;1.00;;
71975;SDS011;68326;52.124;5.424;2023-04-25T02:45:48;8.50;;;1.02;;
71975;SDS011;68326;52.124;5.424;2023-04-25T02:48:14;6.07;;;1.20;;
71975;SDS011;68326;52.124;5.424;2023-04-25T02:50:41;4.63;;;0.70;;
71975;SDS011;68326;52.124;5.424;2023-04-25T02:53:07;5.68;;;1.00;;
71975;SDS011;68326;52.124;5.424;2023-04-25T02:55:34;11.57;;;1.45;;
71975;SDS011;68326;52.124;5.424;2023-04-25T02:58:00;8.38;;;1.02;;
71975;SDS011;68326;52.124;5.424;2023-04-25T03:00:27;6.60;;;1.10;;
71975;SDS011;68326;52.124;5.424;2023-04-25T03:02:54;5.80;;;0.90;;
71975;SDS011;68326;52.124;5.424;2023-04-25T03:05:21;9.65;;;0.85;;
71975;SDS011;68326;52.124;5.424;2023-04-25T03:07:48;9.43;;;1.10;;
71975;SDS011;68326;52.124;5.424;2023-04-25T03:10:14;5.75;;;1.00;;
71975;SDS011;68326;52.124;5.424;2023-04-25T03:12:41;6.47;;;1.50;;
71975;SDS011;68326;52.124;5.424;2023-04-25T03:15:07;10.00;;;1.23;;
71975;SDS011;68326;52.124;5.424;2023-04-25T03:17:34;12.80;;;0.98;;
71975;SDS011;68326;52.124;5.424;2023-04-25T03:20:01;5.15;;;1.15;;
71975;SDS011;68326;52.124;5.424;2023-04-25T03:22:27;4.53;;;1.33;;
71975;SDS011;68326;52.124;5.424;2023-04-25T03:24:54;8.82;;;0.98;;
71975;SDS011;68326;52.124;5.424;2023-04-25T03:27:20;6.67;;;1.00;;
71975;SDS011;68326;52.124;5.424;2023-04-25T03:29:47;6.50;;;1.40;;
71975;SDS011;68326;52.124;5.424;2023-04-25T03:32:13;9.52;;;1.63;;
71975;SDS011;68326;52.124;5.424;2023-04-25T03:34:39;6.15;;;1.10;;
71975;SDS011;68326;52.124;5.424;2023-04-25T03:37:06;5.18;;;1.17;;
71975;SDS011;68326;52.124;5.424;2023-04-25T03:39:33;11.33;;;1.13;;
71975;SDS011;68326;52.124;5.424;2023-04-25T03:41:59;7.97;;;0.70;;
71975;SDS011;68326;52.124;5.424;2023-04-25T03:44:27;7.70;;;0.90;;
71975;SDS011;68326;52.124;5.424;2023-04-25T03:46:53;7.78;;;1.20;;
71975;SDS011;68326;52.124;5.424;2023-04-25T03:49:20;10.30;;;1.35;;
71975;SDS011;68326;52.124;5.424;2023-04-25T03:51:46;13.07;;;1.30;;
71975;SDS011;68326;52.124;5.424;2023-04-25T03:54:13;9.88;;;1.48;;
71975;SDS011;68326;52.124;5.424;2023-04-25T03:56:39;12.68;;;0.95;;
71975;SDS011;68326;52.124;5.424;2023-04-25T03:59:05;5.03;;;0.82;;
71975;SDS011;68326;52.124;5.424;2023-04-25T04:01:32;6.22;;;0.82;;
71975;SDS011;68326;52.124;5.424;2023-04-25T04:03:58;7.73;;;1.33;;
71975;SDS011;68326;52.124;5.424;2023-04-25T04:06:25;3.92;;;0.60;;
71975;SDS011;68326;52.124;5.424;2023-04-25T04:08:52;5.65;;;0.90;;
71975;SDS011;68326;52.124;5.424;2023-04-25T04:11:19;4.78;;;0.73;;
71975;SDS011;68326;52.124;5.424;2023-04-25T04:13:46;5.68;;;1.05;;
71975;SDS011;68326;52.124;5.424;2023-04-25T04:16:13;4.63;;;0.90;;
71975;SDS011;68326;52.124;5.424;2023-04-25T04:18:39;4.70;;;1.20;;
71975;SDS011;68326;52.124;5.424;2023-04-25T04:21:06;9.27;;;0.70;;
71975;SDS011;68326;52.124;5.424;2023-04-25T04:23:32;7.00;;;1.00;;
71975;SDS011;68326;52.124;5.424;2023-04-25T04:25:59;6.90;;;0.60;;
71975;SDS011;68326;52.124;5.424;2023-04-25T04:28:26;3.73;;;0.70;;
71975;SDS011;68326;52.124;5.424;2023-04-25T04:30:54;5.53;;;0.70;;
71975;SDS011;68326;52.124;5.424;2023-04-25T04:33:21;7.60;;;0.80;;
71975;SDS011;68326;52.124;5.424;2023-04-25T04:35:50;6.93;;;0.77;;
71975;SDS011;68326;52.124;5.424;2023-04-25T04:38:18;8.23;;;0.88;;
71975;SDS011;68326;52.124;5.424;2023-04-25T04:40:44;9.23;;;0.83;;
71975;SDS011;68326;52.124;5.424;2023-04-25T04:43:12;3.67;;;0.70;;
71975;SDS011;68326;52.124;5.424;2023-04-25T04:45:39;3.78;;;0.80;;
71975;SDS011;68326;52.124;5.424;2023-04-25T04:48:06;2.35;;;0.98;;
71975;SDS011;68326;52.124;5.424;2023-04-25T04:50:32;4.15;;;0.50;;
71975;SDS011;68326;52.124;5.424;2023-04-25T04:53:00;4.63;;;0.50;;
71975;SDS011;68326;52.124;5.424;2023-04-25T04:55:26;4.55;;;0.57;;
71975;SDS011;68326;52.124;5.424;2023-04-25T04:57:52;3.03;;;0.65;;
71975;SDS011;68326;52.124;5.424;2023-04-25T05:00:19;7.57;;;0.80;;
71975;SDS011;68326;52.124;5.424;2023-04-25T05:02:46;4.78;;;0.65;;
71975;SDS011;68326;52.124;5.424;2023-04-25T05:05:13;4.23;;;0.30;;
71975;SDS011;68326;52.124;5.424;2023-04-25T05:07:40;3.30;;;0.45;;
71975;SDS011;68326;52.124;5.424;2023-04-25T05:10:06;5.43;;;0.65;;
71975;SDS011;68326;52.124;5.424;2023-04-25T05:12:33;5.40;;;0.45;;
71975;SDS011;68326;52.124;5.424;2023-04-25T05:15:02;7.53;;;0.55;;
71975;SDS011;68326;52.124;5.424;2023-04-25T05:17:29;4.60;;;0.80;;
71975;SDS011;68326;52.124;5.424;2023-04-25T05:19:56;5.03;;;0.50;;
71975;SDS011;68326;52.124;5.424;2023-04-25T05:22:22;3.20;;;0.60;;
71975;SDS011;68326;52.124;5.424;2023-04-25T05:24:48;5.22;;;1.05;;
71975;SDS011;68326;52.124;5.424;2023-04-25T05:27:16;3.20;;;0.47;;
71975;SDS011;68326;52.124;5.424;2023-04-25T05:29:44;4.03;;;0.60;;
71975;SDS011;68326;52.124;5.424;2023-04-25T05:32:11;4.72;;;0.60;;
71975;SDS011;68326;52.124;5.424;2023-04-25T05:34:37;6.22;;;0.57;;
71975;SDS011;68326;52.124;5.424;2023-04-25T05:37:04;4.40;;;0.52;;
71975;SDS011;68326;52.124;5.424;2023-04-25T05:39:30;6.28;;;1.33;;
71975;SDS011;68326;52.124;5.424;2023-04-25T05:41:57;3.30;;;0.43;;
71975;SDS011;68326;52.124;5.424;2023-04-25T05:44:23;4.10;;;0.57;;
71975;SDS011;68326;52.124;5.424;2023-04-25T05:46:50;9.40;;;0.63;;
71975;SDS011;68326;52.124;5.424;2023-04-25T05:49:16;4.20;;;0.60;;
71975;SDS011;68326;52.124;5.424;2023-04-25T05:51:44;4.63;;;0.57;;
71975;SDS011;68326;52.124;5.424;2023-04-25T05:54:11;6.47;;;0.63;;
71975;SDS011;68326;52.124;5.424;2023-04-25T05:56:37;4.55;;;0.43;;
71975;SDS011;68326;52.124;5.424;2023-04-25T05:59:04;6.82;;;0.57;;
71975;SDS011;68326;52.124;5.424;2023-04-25T06:01:30;4.85;;;0.60;;
71975;SDS011;68326;52.124;5.424;2023-04-25T06:03:57;3.60;;;0.43;;
71975;SDS011;68326;52.124;5.424;2023-04-25T06:06:24;6.60;;;0.70;;
71975;SDS011;68326;52.124;5.424;2023-04-25T06:08:52;5.15;;;0.70;;
71975;SDS011;68326;52.124;5.424;2023-04-25T06:11:19;4.22;;;1.02;;
71975;SDS011;68326;52.124;5.424;2023-04-25T06:13:46;3.92;;;0.52;;
71975;SDS011;68326;52.124;5.424;2023-04-25T06:16:12;6.57;;;0.60;;
71975;SDS011;68326;52.124;5.424;2023-04-25T06:18:39;3.43;;;0.57;;
71975;SDS011;68326;52.124;5.424;2023-04-25T06:21:05;9.20;;;0.65;;
71975;SDS011;68326;52.124;5.424;2023-04-25T06:23:32;4.45;;;0.60;;
71975;SDS011;68326;52.124;5.424;2023-04-25T06:25:58;5.70;;;0.60;;
71975;SDS011;68326;52.124;5.424;2023-04-25T06:28:24;8.25;;;0.60;;
71975;SDS011;68326;52.124;5.424;2023-04-25T06:30:51;4.93;;;0.73;;
71975;SDS011;68326;52.124;5.424;2023-04-25T06:33:17;4.70;;;0.80;;
71975;SDS011;68326;52.124;5.424;2023-04-25T06:35:44;2.38;;;0.60;;
71975;SDS011;68326;52.124;5.424;2023-04-25T06:38:10;7.00;;;0.50;;
71975;SDS011;68326;52.124;5.424;2023-04-25T06:40:37;5.28;;;0.70;;
71975;SDS011;68326;52.124;5.424;2023-04-25T06:43:03;5.10;;;0.33;;
71975;SDS011;68326;52.124;5.424;2023-04-25T06:45:30;2.47;;;0.95;;
71975;SDS011;68326;52.124;5.424;2023-04-25T06:47:57;6.95;;;0.50;;
71975;SDS011;68326;52.124;5.424;2023-04-25T06:50:23;8.68;;;0.80;;
71975;SDS011;68326;52.124;5.424;2023-04-25T06:52:50;5.97;;;0.50;;
71975;SDS011;68326;52.124;5.424;2023-04-25T06:55:16;4.97;;;0.40;;
71975;SDS011;68326;52.124;5.424;2023-04-25T06:57:43;10.05;;;0.90;;
71975;SDS011;68326;52.124;5.424;2023-04-25T07:00:09;4.95;;;0.85;;
71975;SDS011;68326;52.124;5.424;2023-04-25T07:02:37;15.77;;;0.70;;
71975;SDS011;68326;52.124;5.424;2023-04-25T07:05:03;6.70;;;0.45;;
71975;SDS011;68326;52.124;5.424;2023-04-25T07:07:30;4.73;;;0.43;;
71975;SDS011;68326;52.124;5.424;2023-04-25T07:09:56;5.45;;;0.45;;
71975;SDS011;68326;52.124;5.424;2023-04-25T07:12:23;5.43;;;0.32;;
71975;SDS011;68326;52.124;5.424;2023-04-25T07:14:49;5.75;;;0.50;;
71975;SDS011;68326;52.124;5.424;2023-04-25T07:17:16;7.72;;;0.93;;
71975;SDS011;68326;52.124;5.424;2023-04-25T07:19:42;6.77;;;0.67;;
71975;SDS011;68326;52.124;5.424;2023-04-25T07:22:09;5.00;;;0.40;;
71975;SDS011;68326;52.124;5.424;2023-04-25T07:24:36;5.05;;;0.50;;
71975;SDS011;68326;52.124;5.424;2023-04-25T07:27:02;2.65;;;0.40;;
71975;SDS011;68326;52.124;5.424;2023-04-25T07:29:29;7.53;;;1.02;;
71975;SDS011;68326;52.124;5.424;2023-04-25T07:31:57;3.83;;;0.50;;
71975;SDS011;68326;52.124;5.424;2023-04-25T07:34:23;6.57;;;0.20;;
71975;SDS011;68326;52.124;5.424;2023-04-25T07:36:50;4.25;;;0.50;;
71975;SDS011;68326;52.124;5.424;2023-04-25T07:39:16;3.33;;;0.50;;
71975;SDS011;68326;52.124;5.424;2023-04-25T07:41:43;4.43;;;0.40;;
71975;SDS011;68326;52.124;5.424;2023-04-25T07:44:09;10.07;;;0.50;;
71975;SDS011;68326;52.124;5.424;2023-04-25T07:46:36;4.25;;;0.70;;
71975;SDS011;68326;52.124;5.424;2023-04-25T07:49:02;5.20;;;0.25;;
71975;SDS011;68326;52.124;5.424;2023-04-25T07:51:28;5.28;;;0.40;;
71975;SDS011;68326;52.124;5.424;2023-04-25T07:53:55;2.35;;;0.40;;
71975;SDS011;68326;52.124;5.424;2023-04-25T07:56:21;6.23;;;0.40;;
71975;SDS011;68326;52.124;5.424;2023-04-25T07:58:48;2.13;;;0.20;;
71975;SDS011;68326;52.124;5.424;2023-04-25T08:01:15;2.47;;;0.30;;
71975;SDS011;68326;52.124;5.424;2023-04-25T08:03:42;3.08;;;0.20;;
71975;SDS011;68326;52.124;5.424;2023-04-25T08:06:10;4.20;;;0.20;;
71975;SDS011;68326;52.124;5.424;2023-04-25T08:08:38;10.70;;;0.40;;
71975;SDS011;68326;52.124;5.424;2023-04-25T08:11:04;6.35;;;0.50;;
71975;SDS011;68326;52.124;5.424;2023-04-25T08:13:31;5.10;;;0.30;;
71975;SDS011;68326;52.124;5.424;2023-04-25T08:15:57;2.75;;;0.20;;
71975;SDS011;68326;52.124;5.424;2023-04-25T08:18:24;2.80;;;0.70;;
71975;SDS011;68326;52.124;5.424;2023-04-25T08:20:50;6.03;;;0.47;;
71975;SDS011;68326;52.124;5.424;2023-04-25T08:23:17;7.45;;;0.60;;
71975;SDS011;68326;52.124;5.424;2023-04-25T08:25:44;3.55;;;0.30;;
71975;SDS011;68326;52.124;5.424;2023-04-25T08:28:11;2.63;;;0.47;;
71975;SDS011;68326;52.124;5.424;2023-04-25T08:30:37;3.20;;;0.20;;
71975;SDS011;68326;52.124;5.424;2023-04-25T08:33:03;4.30;;;0.63;;
71975;SDS011;68326;52.124;5.424;2023-04-25T08:35:30;3.88;;;0.17;;
71975;SDS011;68326;52.124;5.424;2023-04-25T08:37:57;4.95;;;0.20;;
71975;SDS011;68326;52.124;5.424;2023-04-25T08:40:23;3.88;;;0.20;;
71975;SDS011;68326;52.124;5.424;2023-04-25T08:42:57;1.48;;;0.17;;
71975;SDS011;68326;52.124;5.424;2023-04-25T08:45:25;4.20;;;0.20;;
71975;SDS011;68326;52.124;5.424;2023-04-25T08:47:53;2.50;;;0.13;;
71975;SDS011;68326;52.124;5.424;2023-04-25T08:50:21;2.20;;;0.13;;
71975;SDS011;68326;52.124;5.424;2023-04-25T08:52:49;2.67;;;0.20;;
71975;SDS011;68326;52.124;5.424;2023-04-25T08:55:18;2.58;;;0.20;;
71975;SDS011;68326;52.124;5.424;2023-04-25T08:57:46;1.70;;;0.30;;
71975;SDS011;68326;52.124;5.424;2023-04-25T09:00:13;3.15;;;0.30;;
71975;SDS011;68326;52.124;5.424;2023-04-25T09:02:40;5.45;;;0.40;;
71975;SDS011;68326;52.124;5.424;2023-04-25T09:05:09;5.75;;;0.50;;
71975;SDS011;68326;52.124;5.424;2023-04-25T09:07:38;5.40;;;0.30;;
71975;SDS011;68326;52.124;5.424;2023-04-25T09:10:05;2.20;;;0.20;;
71975;SDS011;68326;52.124;5.424;2023-04-25T09:12:32;4.82;;;0.22;;
71975;SDS011;68326;52.124;5.424;2023-04-25T09:15:08;4.35;;;0.40;;
71975;SDS011;68326;52.124;5.424;2023-04-25T09:17:37;1.58;;;0.20;;
71975;SDS011;68326;52.124;5.424;2023-04-25T09:20:11;5.38;;;0.28;;
71975;SDS011;68326;52.124;5.424;2023-04-25T09:22:39;4.63;;;0.30;;
71975;SDS011;68326;52.124;5.424;2023-04-25T09:25:10;5.38;;;0.20;;
71975;SDS011;68326;52.124;5.424;2023-04-25T09:27:48;3.08;;;0.20;;
71975;SDS011;68326;52.124;5.424;2023-04-25T09:30:17;3.30;;;0.30;;
71975;SDS011;68326;52.124;5.424;2023-04-25T09:32:43;3.80;;;0.22;;
71975;SDS011;68326;52.124;5.424;2023-04-25T09:35:10;2.57;;;0.20;;
71975;SDS011;68326;52.124;5.424;2023-04-25T09:37:50;4.55;;;0.30;;
71975;SDS011;68326;52.124;5.424;2023-04-25T09:40:17;4.85;;;0.63;;
71975;SDS011;68326;52.124;5.424;2023-04-25T09:42:44;2.90;;;0.30;;
71975;SDS011;68326;52.124;5.424;2023-04-25T09:45:12;4.05;;;0.20;;
71975;SDS011;68326;52.124;5.424;2023-04-25T09:47:41;2.23;;;0.30;;
71975;SDS011;68326;52.124;5.424;2023-04-25T09:50:16;2.42;;;0.25;;
71975;SDS011;68326;52.124;5.424;2023-04-25T09:52:45;2.05;;;0.20;;
71975;SDS011;68326;52.124;5.424;2023-04-25T09:55:11;1.70;;;0.20;;
71975;SDS011;68326;52.124;5.424;2023-04-25T09:57:38;5.97;;;1.33;;
71975;SDS011;68326;52.124;5.424;2023-04-25T10:00:06;2.43;;;0.10;;
71975;SDS011;68326;52.124;5.424;2023-04-25T10:02:38;2.47;;;0.20;;
71975;SDS011;68326;52.124;5.424;2023-04-25T10:05:08;4.95;;;0.20;;
71975;SDS011;68326;52.124;5.424;2023-04-25T10:07:36;3.53;;;0.20;;
71975;SDS011;68326;52.124;5.424;2023-04-25T10:10:05;3.83;;;0.30;;
71975;SDS011;68326;52.124;5.424;2023-04-25T10:12:32;6.37;;;0.40;;
71975;SDS011;68326;52.124;5.424;2023-04-25T10:15:00;3.42;;;0.20;;
71975;SDS011;68326;52.124;5.424;2023-04-25T10:17:27;5.45;;;0.20;;
71975;SDS011;68326;52.124;5.424;2023-04-25T10:19:54;2.50;;;0.10;;
71975;SDS011;68326;52.124;5.424;2023-04-25T10:22:34;2.55;;;0.20;;
71975;SDS011;68326;52.124;5.424;2023-04-25T10:25:03;3.10;;;0.50;;
71975;SDS011;68326;52.124;5.424;2023-04-25T10:27:30;3.50;;;0.38;;
71975;SDS011;68326;52.124;5.424;2023-04-25T10:30:01;3.63;;;0.30;;
71975;SDS011;68326;52.124;5.424;2023-04-25T10:32:41;4.40;;;0.30;;
71975;SDS011;68326;52.124;5.424;2023-04-25T10:35:19;2.75;;;0.20;;
71975;SDS011;68326;52.124;5.424;2023-04-25T10:40:29;1.67;;;0.15;;
71975;SDS011;68326;52.124;5.424;2023-04-25T10:42:56;3.80;;;0.45;;
71975;SDS011;68326;52.124;5.424;2023-04-25T10:46:00;1.48;;;0.20;;
71975;SDS011;68326;52.124;5.424;2023-04-25T10:48:28;5.18;;;0.40;;
71975;SDS011;68326;52.124;5.424;2023-04-25T10:51:08;1.73;;;0.20;;
71975;SDS011;68326;52.124;5.424;2023-04-25T10:53:43;4.70;;;0.28;;
71975;SDS011;68326;52.124;5.424;2023-04-25T10:56:17;1.70;;;0.20;;
71975;SDS011;68326;52.124;5.424;2023-04-25T10:58:46;3.17;;;0.20;;
71975;SDS011;68326;52.124;5.424;2023-04-25T11:01:20;4.40;;;0.30;;
71975;SDS011;68326;52.124;5.424;2023-04-25T11:03:56;2.73;;;0.23;;
71975;SDS011;68326;52.124;5.424;2023-04-25T11:09:32;4.82;;;0.22;;
71975;SDS011;68326;52.124;5.424;2023-04-25T11:11:59;2.20;;;0.20;;
71975;SDS011;68326;52.124;5.424;2023-04-25T11:14:26;2.42;;;0.20;;
71975;SDS011;68326;52.124;5.424;2023-04-25T11:16:53;3.33;;;0.30;;
71975;SDS011;68326;52.124;5.424;2023-04-25T11:19:26;4.47;;;0.30;;
71975;SDS011;68326;52.124;5.424;2023-04-25T11:21:57;5.45;;;0.35;;
71975;SDS011;68326;52.124;5.424;2023-04-25T11:24:32;3.13;;;0.30;;
71975;SDS011;68326;52.124;5.424;2023-04-25T11:27:01;3.85;;;0.50;;
71975;SDS011;68326;52.124;5.424;2023-04-25T11:29:29;1.03;;;0.17;;
71975;SDS011;68326;52.124;5.424;2023-04-25T11:31:56;2.20;;;0.25;;
71975;SDS011;68326;52.124;5.424;2023-04-25T11:34:28;2.05;;;0.25;;
71975;SDS011;68326;52.124;5.424;2023-04-25T11:36:59;3.85;;;0.20;;
71975;SDS011;68326;52.124;5.424;2023-04-25T11:39:29;4.50;;;0.65;;
71975;SDS011;68326;52.124;5.424;2023-04-25T11:41:56;2.50;;;0.20;;
71975;SDS011;68326;52.124;5.424;2023-04-25T11:44:22;2.53;;;0.20;;
71975;SDS011;68326;52.124;5.424;2023-04-25T11:46:49;3.15;;;0.30;;
71975;SDS011;68326;52.124;5.424;2023-04-25T11:49:15;3.40;;;0.30;;
71975;SDS011;68326;52.124;5.424;2023-04-25T11:51:45;2.67;;;0.30;;
71975;SDS011;68326;52.124;5.424;2023-04-25T11:54:14;3.80;;;0.30;;
71975;SDS011;68326;52.124;5.424;2023-04-25T11:56:42;4.38;;;0.70;;
71975;SDS011;68326;52.124;5.424;2023-04-25T11:59:09;5.25;;;0.40;;
71975;SDS011;68326;52.124;5.424;2023-04-25T12:01:38;2.58;;;0.20;;
71975;SDS011;68326;52.124;5.424;2023-04-25T12:04:12;2.20;;;0.20;;
71975;SDS011;68326;52.124;5.424;2023-04-25T12:06:44;2.30;;;0.40;;
71975;SDS011;68326;52.124;5.424;2023-04-25T12:09:19;1.55;;;0.40;;
71975;SDS011;68326;52.124;5.424;2023-04-25T12:11:48;3.05;;;0.30;;
71975;SDS011;68326;52.124;5.424;2023-04-25T12:14:25;4.47;;;0.50;;
71975;SDS011;68326;52.124;5.424;2023-04-25T12:16:57;3.58;;;0.50;;
71975;SDS011;68326;52.124;5.424;2023-04-25T12:19:25;4.00;;;0.43;;
71975;SDS011;68326;52.124;5.424;2023-04-25T12:21:52;3.85;;;0.20;;
71975;SDS011;68326;52.124;5.424;2023-04-25T12:24:24;4.47;;;0.30;;
71975;SDS011;68326;52.124;5.424;2023-04-25T12:27:00;2.90;;;0.50;;
71975;SDS011;68326;52.124;5.424;2023-04-25T12:29:32;3.47;;;0.40;;
71975;SDS011;68326;52.124;5.424;2023-04-25T12:32:14;4.07;;;0.60;;
71975;SDS011;68326;52.124;5.424;2023-04-25T12:34:41;3.45;;;0.30;;
71975;SDS011;68326;52.124;5.424;2023-04-25T12:37:08;4.05;;;0.32;;
71975;SDS011;68326;52.124;5.424;2023-04-25T12:39:35;2.50;;;0.20;;
71975;SDS011;68326;52.124;5.424;2023-04-25T12:42:01;1.50;;;0.20;;
71975;SDS011;68326;52.124;5.424;2023-04-25T12:44:30;6.70;;;0.30;;
71975;SDS011;68326;52.124;5.424;2023-04-25T12:46:57;2.38;;;0.40;;
71975;SDS011;68326;52.124;5.424;2023-04-25T12:49:24;3.15;;;0.30;;
71975;SDS011;68326;52.124;5.424;2023-04-25T12:51:51;2.10;;;0.25;;
71975;SDS011;68326;52.124;5.424;2023-04-25T12:54:17;2.80;;;0.20;;
71975;SDS011;68326;52.124;5.424;2023-04-25T12:56:44;2.50;;;0.20;;
71975;SDS011;68326;52.124;5.424;2023-04-25T12:59:10;4.20;;;0.28;;
71975;SDS011;68326;52.124;5.424;2023-04-25T13:01:37;4.45;;;0.30;;
71975;SDS011;68326;52.124;5.424;2023-04-25T13:04:05;0.65;;;0.10;;
71975;SDS011;68326;52.124;5.424;2023-04-25T13:06:31;2.45;;;0.35;;
71975;SDS011;68326;52.124;5.424;2023-04-25T13:08:58;3.03;;;0.30;;
71975;SDS011;68326;52.124;5.424;2023-04-25T13:11:24;2.60;;;0.38;;
71975;SDS011;68326;52.124;5.424;2023-04-25T13:13:51;1.77;;;0.20;;
71975;SDS011;68326;52.124;5.424;2023-04-25T13:16:18;4.28;;;0.40;;
71975;SDS011;68326;52.124;5.424;2023-04-25T13:18:47;4.13;;;0.38;;
71975;SDS011;68326;52.124;5.424;2023-04-25T13:21:13;1.07;;;0.20;;
71975;SDS011;68326;52.124;5.424;2023-04-25T13:23:40;1.88;;;0.35;;
71975;SDS011;68326;52.124;5.424;2023-04-25T13:26:08;1.42;;;0.20;;
71975;SDS011;68326;52.124;5.424;2023-04-25T13:28:35;1.70;;;0.30;;
71975;SDS011;68326;52.124;5.424;2023-04-25T13:31:01;2.78;;;0.30;;
71975;SDS011;68326;52.124;5.424;2023-04-25T13:33:28;3.80;;;0.50;;
71975;SDS011;68326;52.124;5.424;2023-04-25T13:35:55;3.95;;;0.40;;
71975;SDS011;68326;52.124;5.424;2023-04-25T13:38:23;3.67;;;0.55;;
71975;SDS011;68326;52.124;5.424;2023-04-25T13:40:51;2.20;;;0.20;;
71975;SDS011;68326;52.124;5.424;2023-04-25T13:43:19;1.13;;;0.20;;
71975;SDS011;68326;52.124;5.424;2023-04-25T13:45:48;3.73;;;0.30;;
71975;SDS011;68326;52.124;5.424;2023-04-25T13:48:15;3.83;;;0.30;;
71975;SDS011;68326;52.124;5.424;2023-04-25T13:50:41;3.10;;;0.30;;
71975;SDS011;68326;52.124;5.424;2023-04-25T13:53:08;1.33;;;0.30;;
71975;SDS011;68326;52.124;5.424;2023-04-25T13:55:34;1.65;;;0.30;;
71975;SDS011;68326;52.124;5.424;2023-04-25T13:58:02;3.07;;;0.20;;
71975;SDS011;68326;52.124;5.424;2023-04-25T14:00:34;3.03;;;0.20;;
71975;SDS011;68326;52.124;5.424;2023-04-25T14:03:04;3.80;;;0.30;;
71975;SDS011;68326;52.124;5.424;2023-04-25T14:05:34;5.47;;;0.35;;
71975;SDS011;68326;52.124;5.424;2023-04-25T14:08:06;2.88;;;0.28;;
71975;SDS011;68326;52.124;5.424;2023-04-25T14:10:34;3.10;;;0.40;;
71975;SDS011;68326;52.124;5.424;2023-04-25T14:13:01;3.65;;;0.40;;
71975;SDS011;68326;52.124;5.424;2023-04-25T14:15:30;2.08;;;0.40;;
71975;SDS011;68326;52.124;5.424;2023-04-25T14:17:58;2.72;;;0.45;;
71975;SDS011;68326;52.124;5.424;2023-04-25T14:20:25;3.72;;;0.20;;
71975;SDS011;68326;52.124;5.424;2023-04-25T14:22:52;5.33;;;0.40;;
71975;SDS011;68326;52.124;5.424;2023-04-25T14:25:20;1.83;;;0.30;;
71975;SDS011;68326;52.124;5.424;2023-04-25T14:27:47;2.75;;;0.40;;
71975;SDS011;68326;52.124;5.424;2023-04-25T14:30:19;3.85;;;0.40;;
71975;SDS011;68326;52.124;5.424;2023-04-25T14:32:48;1.77;;;0.30;;
71975;SDS011;68326;52.124;5.424;2023-04-25T14:35:15;5.57;;;0.43;;
71975;SDS011;68326;52.124;5.424;2023-04-25T14:37:42;4.85;;;0.40;;
71975;SDS011;68326;52.124;5.424;2023-04-25T14:40:09;4.68;;;0.50;;
71975;SDS011;68326;52.124;5.424;2023-04-25T14:42:37;2.35;;;0.55;;
71975;SDS011;68326;52.124;5.424;2023-04-25T14:45:04;5.10;;;0.70;;
71975;SDS011;68326;52.124;5.424;2023-04-25T14:47:32;3.10;;;0.50;;
71975;SDS011;68326;52.124;5.424;2023-04-25T14:49:59;1.58;;;0.20;;
71975;SDS011;68326;52.124;5.424;2023-04-25T14:52:25;3.22;;;0.40;;
71975;SDS011;68326;52.124;5.424;2023-04-25T14:54:52;3.40;;;0.20;;
71975;SDS011;68326;52.124;5.424;2023-04-25T14:57:18;1.83;;;0.20;;